Time;durP1;ratioP1;P1;durP2;ratioP2;P2;SDS_P1;SDS_P2;PMS_P1;PMS_P2;Temp;Humidity;BMP_temperature;BMP_pressure;BME280_temperature;BME280_humidity;BME280_pressure;Samples;Min_cycle;Max_cycle;Signal;HPM_P1;HPM_P2
2021/08/20 00:01:50;;;;;;;1.17;1.05;;;17.30;99.90;;;;;;5099183;28;20028;-68
2021/08/20 00:04:16;;;;;;;3.35;1.25;;;17.30;99.90;;;;;;5099300;28;20034;-68
2021/08/20 00:06:42;;;;;;;3.30;1.10;;;17.30;99.90;;;;;;5099236;28;20032;-68
2021/08/20 00:09:09;;;;;;;1.73;1.30;;;17.30;99.90;;;;;;5099044;28;20028;-68
2021/08/20 00:11:37;;;;;;;2.03;1.30;;;17.40;99.90;;;;;;5099152;28;20434;-68
2021/08/20 00:14:04;;;;;;;4.57;1.65;;;17.30;99.90;;;;;;5098801;28;20028;-68
2021/08/20 00:16:30;;;;;;;3.05;1.13;;;17.30;99.90;;;;;;5099015;28;20021;-68
2021/08/20 00:18:56;;;;;;;1.50;1.25;;;17.30;99.90;;;;;;5099144;28;20077;-67
2021/08/20 00:21:21;;;;;;;2.88;1.40;;;17.30;99.90;;;;;;5098860;28;20020;-68
2021/08/20 00:23:47;;;;;;;1.55;1.05;;;17.30;99.90;;;;;;5097490;28;20411;-68
2021/08/20 00:26:13;;;;;;;3.92;1.40;;;17.30;99.90;;;;;;5098870;28;20146;-68
2021/08/20 00:28:39;;;;;;;2.10;1.52;;;17.30;99.90;;;;;;5098510;28;20020;-70
2021/08/20 00:31:05;;;;;;;1.58;1.38;;;17.40;99.90;;;;;;5098658;28;20387;-70
2021/08/20 00:33:34;;;;;;;1.45;1.10;;;17.30;99.90;;;;;;5098557;28;20426;-70
2021/08/20 00:36:00;;;;;;;3.17;1.58;;;17.40;99.90;;;;;;5097272;28;20051;-70
2021/08/20 00:38:27;;;;;;;1.95;1.40;;;17.30;99.90;;;;;;5097221;28;20024;-68
2021/08/20 00:40:54;;;;;;;1.40;1.27;;;17.30;99.90;;;;;;5098576;28;20488;-68
2021/08/20 00:43:25;;;;;;;1.48;1.10;;;17.30;99.90;;;;;;5098366;28;20504;-68
2021/08/20 00:45:55;;;;;;;2.35;1.23;;;17.30;99.90;;;;;;5098082;28;20141;-68
2021/08/20 00:48:21;;;;;;;2.47;1.48;;;17.30;99.90;;;;;;5098439;28;20031;-68
2021/08/20 00:51:08;;;;;;;5.35;1.85;;;17.30;99.90;;;;;;5098170;28;20392;-68
2021/08/20 00:53:35;;;;;;;2.92;1.48;;;17.30;99.90;;;;;;5097713;28;20036;-68
2021/08/20 00:56:03;;;;;;;3.03;1.50;;;17.20;99.90;;;;;;5097348;28;20044;-68
2021/08/20 00:58:33;;;;;;;5.57;1.65;;;17.20;99.90;;;;;;5098193;28;20036;-70
2021/08/20 01:00:59;;;;;;;2.00;1.40;;;17.30;99.90;;;;;;5098024;28;20019;-70
2021/08/20 01:03:29;;;;;;;2.92;1.58;;;17.20;99.90;;;;;;5098046;28;20024;-70
2021/08/20 01:05:56;;;;;;;2.67;1.30;;;17.30;99.90;;;;;;5098279;28;20023;-70
2021/08/20 01:08:23;;;;;;;2.33;1.58;;;17.20;99.90;;;;;;5096452;28;20081;-70
2021/08/20 01:10:50;;;;;;;3.72;1.65;;;17.20;99.90;;;;;;5096610;28;20057;-70
2021/08/20 01:13:19;;;;;;;2.95;2.38;;;17.30;99.90;;;;;;5097948;28;20031;-70
2021/08/20 01:15:46;;;;;;;3.55;1.60;;;17.30;99.90;;;;;;5097808;28;20035;-70
2021/08/20 01:18:20;;;;;;;1.45;1.05;;;17.30;99.90;;;;;;5096379;28;20024;-70
2021/08/20 01:20:46;;;;;;;2.33;1.58;;;17.30;99.90;;;;;;5098058;28;20031;-68
2021/08/20 01:23:12;;;;;;;2.42;1.42;;;17.20;99.90;;;;;;5097718;28;20020;-68
2021/08/20 01:25:38;;;;;;;1.55;1.40;;;17.30;99.90;;;;;;5097772;28;20391;-67
2021/08/20 01:28:06;;;;;;;2.53;1.42;;;17.30;99.90;;;;;;5097530;28;20034;-68
2021/08/20 01:30:32;;;;;;;2.35;1.52;;;17.30;99.90;;;;;;5097385;28;20028;-68
2021/08/20 01:32:57;;;;;;;1.65;1.55;;;17.30;99.90;;;;;;5097306;28;20031;-68
2021/08/20 01:35:24;;;;;;;1.50;1.40;;;17.30;99.90;;;;;;5097679;28;20028;-68
2021/08/20 01:37:50;;;;;;;4.35;1.92;;;17.30;99.90;;;;;;5097403;28;20772;-68
2021/08/20 01:40:15;;;;;;;2.50;1.27;;;17.30;99.90;;;;;;5097613;28;20024;-68
2021/08/20 01:42:41;;;;;;;2.55;1.73;;;17.30;99.90;;;;;;5097257;28;20039;-68
2021/08/20 01:45:08;;;;;;;1.95;1.55;;;17.20;99.90;;;;;;5097199;28;20031;-68
2021/08/20 01:47:34;;;;;;;5.13;1.80;;;17.20;99.90;;;;;;5097235;28;20028;-68
2021/08/20 01:49:59;;;;;;;1.88;1.33;;;17.30;99.90;;;;;;5097327;28;20046;-68
2021/08/20 01:52:26;;;;;;;2.67;1.48;;;17.20;99.90;;;;;;5097181;28;20024;-68
2021/08/20 01:54:52;;;;;;;1.77;1.65;;;17.20;99.90;;;;;;5097026;28;20051;-68
2021/08/20 01:57:18;;;;;;;1.90;1.75;;;17.30;99.90;;;;;;5097023;28;20028;-68
2021/08/20 01:59:43;;;;;;;1.73;1.55;;;17.20;99.90;;;;;;5097269;28;20028;-68
2021/08/20 02:02:09;;;;;;;2.88;1.80;;;17.20;99.90;;;;;;5096971;28;20035;-68
2021/08/20 02:04:35;;;;;;;1.88;1.60;;;17.20;99.90;;;;;;5097153;28;20027;-68
2021/08/20 02:07:01;;;;;;;1.85;1.30;;;17.10;99.90;;;;;;5095436;28;20032;-67
2021/08/20 02:09:27;;;;;;;4.47;2.08;;;17.20;99.90;;;;;;5096899;28;20024;-68
2021/08/20 02:11:53;;;;;;;1.98;1.88;;;17.20;99.90;;;;;;5096819;28;20053;-68
2021/08/20 02:14:18;;;;;;;4.13;1.90;;;17.20;99.90;;;;;;5096848;28;20020;-68
2021/08/20 02:16:45;;;;;;;5.50;2.30;;;17.10;99.90;;;;;;5095627;28;20111;-68
2021/08/20 02:19:10;;;;;;;5.22;2.03;;;17.20;99.90;;;;;;5096965;28;20111;-68
2021/08/20 02:21:36;;;;;;;4.53;1.80;;;17.20;99.90;;;;;;5096787;28;20048;-68
2021/08/20 02:24:02;;;;;;;8.55;2.45;;;17.20;99.90;;;;;;5096901;28;20028;-68
2021/08/20 02:26:28;;;;;;;5.18;2.40;;;17.20;99.90;;;;;;5096715;28;20384;-68
2021/08/20 02:28:54;;;;;;;4.03;2.50;;;17.20;99.90;;;;;;5095141;28;20115;-68
2021/08/20 02:31:20;;;;;;;3.97;2.20;;;17.20;99.90;;;;;;5096516;28;20020;-68
2021/08/20 02:33:46;;;;;;;4.53;2.20;;;17.20;99.90;;;;;;5096892;28;20024;-68
2021/08/20 02:36:12;;;;;;;3.00;2.33;;;17.20;99.90;;;;;;5096945;28;20032;-68
2021/08/20 02:38:39;;;;;;;4.45;2.45;;;17.20;99.90;;;;;;5096677;28;20020;-68
2021/08/20 02:41:05;;;;;;;3.00;2.65;;;17.20;99.90;;;;;;5095196;28;20026;-68
2021/08/20 02:43:30;;;;;;;4.13;2.50;;;17.20;99.90;;;;;;5096570;28;20099;-68
2021/08/20 02:45:56;;;;;;;4.03;2.33;;;17.20;99.90;;;;;;5096554;28;20095;-68
2021/08/20 02:48:23;;;;;;;5.57;3.33;;;17.20;99.90;;;;;;5095326;28;20107;-68
2021/08/20 02:50:49;;;;;;;6.07;3.20;;;17.20;99.90;;;;;;5096411;28;20028;-67
2021/08/20 02:53:15;;;;;;;6.30;2.67;;;17.20;99.90;;;;;;5096669;28;20024;-68
2021/08/20 02:55:41;;;;;;;4.93;2.95;;;17.20;99.90;;;;;;5096415;28;20100;-68
2021/08/20 02:58:07;;;;;;;4.10;2.78;;;17.20;99.90;;;;;;5096496;28;20459;-68
2021/08/20 03:00:33;;;;;;;2.38;1.77;;;17.20;99.90;;;;;;5096184;28;20036;-68
2021/08/20 03:03:00;;;;;;;2.60;1.73;;;17.20;99.90;;;;;;5096421;28;20509;-68
2021/08/20 03:05:26;;;;;;;2.58;1.85;;;17.20;99.90;;;;;;5096326;28;20519;-68
2021/08/20 03:07:52;;;;;;;4.05;1.65;;;17.20;99.90;;;;;;5096499;28;20031;-68
2021/08/20 03:10:18;;;;;;;2.67;1.50;;;17.10;99.90;;;;;;5096153;28;20020;-68
2021/08/20 03:12:44;;;;;;;4.00;1.67;;;17.20;99.90;;;;;;5095162;28;20061;-68
2021/08/20 03:15:10;;;;;;;3.75;2.15;;;17.20;99.90;;;;;;5094702;28;20492;-68
2021/08/20 03:17:36;;;;;;;2.15;1.60;;;17.10;99.90;;;;;;5096460;28;20016;-68
2021/08/20 03:20:03;;;;;;;2.97;1.50;;;17.20;99.90;;;;;;5099957;28;20578;-68
2021/08/20 03:22:28;;;;;;;2.55;2.05;;;17.10;99.90;;;;;;5100238;28;20035;-67
2021/08/20 03:24:54;;;;;;;4.32;1.55;;;17.10;99.90;;;;;;5098579;28;20387;-68
2021/08/20 03:27:20;;;;;;;2.33;2.03;;;17.10;99.90;;;;;;5098721;28;20024;-67
2021/08/20 03:29:46;;;;;;;4.38;1.77;;;17.10;99.90;;;;;;5099535;28;20024;-68
2021/08/20 03:32:12;;;;;;;3.50;1.58;;;17.00;99.90;;;;;;5100001;28;20020;-67
2021/08/20 03:34:38;;;;;;;2.35;1.42;;;17.00;99.90;;;;;;5099823;28;20814;-70
2021/08/20 03:37:04;;;;;;;3.65;1.60;;;17.00;99.90;;;;;;5099885;28;20046;-70
2021/08/20 03:39:30;;;;;;;6.50;1.92;;;17.00;99.90;;;;;;5099585;28;20038;-68
2021/08/20 03:41:55;;;;;;;4.93;2.30;;;17.00;99.90;;;;;;5099761;28;20024;-68
2021/08/20 03:44:21;;;;;;;3.08;2.33;;;17.00;99.90;;;;;;5099412;28;20036;-68
2021/08/20 03:46:47;;;;;;;5.75;4.03;;;17.00;99.90;;;;;;5099686;28;20077;-68
2021/08/20 03:49:13;;;;;;;4.18;3.08;;;17.00;99.90;;;;;;5099567;28;20012;-68
2021/08/20 03:51:39;;;;;;;3.92;2.75;;;17.00;99.90;;;;;;5099586;28;20020;-68
2021/08/20 03:54:05;;;;;;;4.25;2.70;;;17.00;99.90;;;;;;5099078;28;20053;-68
2021/08/20 03:56:31;;;;;;;3.38;2.42;;;17.00;99.90;;;;;;5099554;28;20027;-68
2021/08/20 03:58:58;;;;;;;3.85;2.15;;;17.00;99.90;;;;;;5099105;28;20027;-68
2021/08/20 04:01:25;;;;;;;2.45;1.52;;;17.00;99.90;;;;;;5098090;28;20111;-68
2021/08/20 04:03:51;;;;;;;1.70;1.60;;;17.00;99.90;;;;;;5099215;28;20016;-68
2021/08/20 04:06:16;;;;;;;2.38;1.75;;;17.00;99.90;;;;;;5099359;28;20077;-68
2021/08/20 04:08:42;;;;;;;2.40;2.20;;;17.00;99.90;;;;;;5097813;28;20022;-68
2021/08/20 04:11:12;;;;;;;3.60;1.88;;;17.00;99.90;;;;;;5099138;28;20106;-68
2021/08/20 04:13:38;;;;;;;2.25;2.05;;;17.00;99.90;;;;;;5098814;28;20070;-68
2021/08/20 04:16:05;;;;;;;2.10;1.90;;;17.20;99.90;;;;;;5097765;28;20069;-68
2021/08/20 04:18:32;;;;;;;3.45;2.00;;;17.10;99.90;;;;;;5097749;28;20031;-68
2021/08/20 04:20:58;;;;;;;1.70;1.60;;;17.00;99.90;;;;;;5099177;28;20032;-68
2021/08/20 04:23:24;;;;;;;2.67;1.70;;;16.90;99.90;;;;;;5098906;28;20028;-68
2021/08/20 04:25:49;;;;;;;2.40;1.90;;;17.00;99.90;;;;;;5098912;28;20025;-68
2021/08/20 04:28:15;;;;;;;2.35;1.60;;;17.00;99.90;;;;;;5097747;28;20016;-68
2021/08/20 04:30:41;;;;;;;2.05;1.80;;;16.90;99.90;;;;;;5098558;28;20392;-68
2021/08/20 04:33:07;;;;;;;4.13;1.90;;;16.90;99.90;;;;;;5098515;28;20024;-68
2021/08/20 04:35:33;;;;;;;3.35;1.88;;;17.00;99.90;;;;;;5098856;28;20069;-68
2021/08/20 04:37:59;;;;;;;2.67;2.47;;;17.00;99.90;;;;;;5098730;28;20415;-68
2021/08/20 04:40:25;;;;;;;4.05;2.20;;;17.00;99.90;;;;;;5098661;28;20039;-70
2021/08/20 04:42:51;;;;;;;4.80;2.47;;;16.90;99.90;;;;;;5098350;28;20031;-70
2021/08/20 04:45:17;;;;;;;5.30;2.55;;;16.90;99.90;;;;;;5098308;28;20024;-70
2021/08/20 04:47:44;;;;;;;2.47;2.00;;;16.90;99.90;;;;;;5097190;28;20024;-70
2021/08/20 04:50:11;;;;;;;3.15;1.92;;;16.90;99.90;;;;;;5098471;28;20028;-70
2021/08/20 04:52:38;;;;;;;2.90;2.10;;;16.90;99.90;;;;;;5098356;28;20052;-70
2021/08/20 04:55:04;;;;;;;2.72;2.50;;;16.80;99.90;;;;;;5098151;28;20515;-70
2021/08/20 04:57:30;;;;;;;6.03;2.03;;;16.80;99.90;;;;;;5098334;28;20048;-70
2021/08/20 04:59:56;;;;;;;3.00;2.38;;;16.80;99.90;;;;;;5098110;28;20035;-69
2021/08/20 05:02:22;;;;;;;3.53;2.65;;;16.80;99.90;;;;;;5096879;28;20048;-70
2021/08/20 05:04:48;;;;;;;3.65;2.85;;;16.80;99.90;;;;;;5096847;28;20028;-70
2021/08/20 05:07:14;;;;;;;4.55;2.80;;;16.80;99.90;;;;;;5098165;28;20031;-70
2021/08/20 05:09:39;;;;;;;2.92;2.40;;;16.80;99.90;;;;;;5098002;28;20473;-70
2021/08/20 05:12:08;;;;;;;2.85;2.63;;;16.80;99.90;;;;;;5097888;28;20024;-70
2021/08/20 05:14:34;;;;;;;3.22;2.78;;;16.80;99.90;;;;;;5097850;28;20054;-70
2021/08/20 05:17:00;;;;;;;3.35;2.30;;;16.80;99.90;;;;;;5097982;28;20423;-70
2021/08/20 05:19:26;;;;;;;3.35;2.30;;;16.80;99.90;;;;;;5097932;28;20025;-70
2021/08/20 05:21:51;;;;;;;3.80;2.65;;;16.80;99.90;;;;;;5097878;28;20020;-70
2021/08/20 05:24:17;;;;;;;3.47;2.90;;;16.80;99.90;;;;;;5097628;28;20084;-70
2021/08/20 05:26:43;;;;;;;3.70;2.80;;;16.90;99.90;;;;;;5098183;28;20107;-70
2021/08/20 05:29:09;;;;;;;3.80;2.38;;;16.80;99.90;;;;;;5097274;28;20028;-70
2021/08/20 05:31:35;;;;;;;3.03;2.72;;;16.80;99.90;;;;;;5096067;28;20016;-68
2021/08/20 05:34:01;;;;;;;3.92;2.60;;;16.80;99.90;;;;;;5097780;28;20217;-68
2021/08/20 05:36:27;;;;;;;3.10;2.80;;;16.90;99.90;;;;;;5097581;28;20608;-68
2021/08/20 05:38:53;;;;;;;8.75;3.28;;;16.90;99.90;;;;;;5097416;28;20024;-68
2021/08/20 05:41:19;;;;;;;4.78;2.17;;;16.90;99.90;;;;;;5095817;28;20044;-68
2021/08/20 05:43:45;;;;;;;2.70;2.15;;;16.90;99.90;;;;;;5097201;28;20479;-68
2021/08/20 05:46:11;;;;;;;2.42;2.22;;;16.90;99.90;;;;;;5097625;28;20532;-67
2021/08/20 05:48:36;;;;;;;3.03;2.33;;;16.90;99.90;;;;;;5097336;28;20023;-68
2021/08/20 05:51:02;;;;;;;3.42;2.80;;;16.90;99.90;;;;;;5097493;28;20383;-68
2021/08/20 05:53:28;;;;;;;3.67;2.60;;;17.10;99.90;;;;;;5096965;28;20027;-68
2021/08/20 05:55:54;;;;;;;3.40;2.92;;;17.10;99.90;;;;;;5097080;28;20044;-68
2021/08/20 05:58:20;;;;;;;2.63;2.05;;;17.10;99.90;;;;;;5097286;28;20024;-70
2021/08/20 06:00:48;;;;;;;4.82;2.55;;;17.20;99.90;;;;;;5097288;28;20028;-68
2021/08/20 06:03:23;;;;;;;3.55;2.78;;;17.30;99.90;;;;;;5095820;28;20038;-68
2021/08/20 06:05:50;;;;;;;4.15;3.17;;;17.30;99.90;;;;;;5097142;28;20024;-68
2021/08/20 06:08:16;;;;;;;2.33;2.22;;;17.30;99.90;;;;;;5096935;28;20116;-68
2021/08/20 06:10:44;;;;;;;2.85;2.65;;;17.40;99.90;;;;;;5097387;28;20020;-68
2021/08/20 06:13:14;;;;;;;4.60;2.22;;;17.40;99.90;;;;;;5096877;28;20392;-68
2021/08/20 06:15:40;;;;;;;3.88;2.97;;;17.50;99.90;;;;;;5096748;28;20016;-68
2021/08/20 06:18:06;;;;;;;3.47;2.63;;;17.60;99.90;;;;;;5096816;28;20024;-68
2021/08/20 06:20:32;;;;;;;6.18;2.78;;;17.50;99.90;;;;;;5096989;28;20840;-68
2021/08/20 06:22:58;;;;;;;3.35;2.30;;;17.60;99.90;;;;;;5096960;28;20031;-68
2021/08/20 06:25:24;;;;;;;2.97;2.55;;;17.70;99.90;;;;;;5096808;28;20016;-68
2021/08/20 06:27:50;;;;;;;3.53;2.85;;;17.80;99.90;;;;;;5096802;28;20035;-68
2021/08/20 06:30:16;;;;;;;2.85;2.50;;;17.90;99.90;;;;;;5096581;28;20399;-68
2021/08/20 06:32:42;;;;;;;4.30;2.70;;;17.80;99.90;;;;;;5096803;28;20430;-68
2021/08/20 06:35:08;;;;;;;2.90;2.53;;;17.90;99.90;;;;;;5096816;28;20102;-68
2021/08/20 06:37:34;;;;;;;2.53;2.30;;;17.90;99.90;;;;;;5096751;28;20063;-67
2021/08/20 06:40:02;;;;;;;2.88;2.47;;;18.00;99.90;;;;;;5096660;28;20031;-68
2021/08/20 06:42:28;;;;;;;2.92;2.65;;;17.90;99.90;;;;;;5096610;28;20455;-68
2021/08/20 06:44:53;;;;;;;3.47;2.55;;;18.00;99.90;;;;;;5095189;28;20106;-68
2021/08/20 06:47:19;;;;;;;3.70;2.70;;;18.00;99.90;;;;;;5096653;28;20388;-68
2021/08/20 06:49:46;;;;;;;5.32;2.72;;;;;;;;;;5096868;28;20046;-68
2021/08/20 06:52:12;;;;;;;3.50;2.47;;;;;;;;;;5096809;28;20518;-68
2021/08/20 06:54:38;;;;;;;2.50;1.98;;;;;;;;;;5099652;28;20488;-68
2021/08/20 06:57:04;;;;;;;2.60;2.28;;;18.40;99.90;;;;;;5100434;28;20073;-68
2021/08/20 06:59:30;;;;;;;3.13;2.83;;;;;;;;;;5100453;28;20020;-68
2021/08/20 07:01:56;;;;;;;2.95;2.55;;;18.80;99.90;;;;;;5099065;28;20111;-68
2021/08/20 07:04:22;;;;;;;2.35;2.15;;;18.70;99.90;;;;;;5100644;28;20062;-68
2021/08/20 07:06:48;;;;;;;2.78;2.08;;;;;;;;;;5100454;28;20035;-68
2021/08/20 07:09:14;;;;;;;2.20;2.00;;;18.60;99.90;;;;;;5100383;28;20024;-68
2021/08/20 07:11:40;;;;;;;4.05;2.45;;;18.70;99.90;;;;;;5098896;28;20544;-68
2021/08/20 07:14:06;;;;;;;3.10;2.08;;;18.80;99.90;;;;;;5100195;28;20109;-68
2021/08/20 07:16:32;;;;;;;2.70;2.00;;;18.70;99.90;;;;;;5100275;28;20024;-68
2021/08/20 07:18:57;;;;;;;2.88;2.10;;;18.80;99.90;;;;;;5100197;28;20024;-68
2021/08/20 07:21:23;;;;;;;2.85;2.20;;;18.90;99.90;;;;;;5100103;28;20028;-68
2021/08/20 07:23:49;;;;;;;4.10;2.92;;;18.90;99.90;;;;;;5098769;28;20016;-68
2021/08/20 07:26:16;;;;;;;5.05;3.33;;;19.00;99.90;;;;;;5100197;28;20042;-68
2021/08/20 07:28:42;;;;;;;2.10;1.90;;;19.30;99.90;;;;;;5099923;28;20062;-68
2021/08/20 07:31:10;;;;;;;3.83;2.10;;;;;;;;;;5098434;28;20028;-68
2021/08/20 07:33:36;;;;;;;3.78;2.58;;;19.40;99.90;;;;;;5099684;28;20028;-68
2021/08/20 07:36:03;;;;;;;3.58;3.13;;;19.50;99.90;;;;;;5099782;28;20545;-68
2021/08/20 07:38:29;;;;;;;3.35;2.60;;;19.50;99.90;;;;;;5099810;28;20140;-68
2021/08/20 07:40:54;;;;;;;6.57;3.15;;;19.50;99.90;;;;;;5099839;28;20035;-68
2021/08/20 07:43:20;;;;;;;4.72;3.60;;;19.60;99.90;;;;;;5099383;28;20030;-68
2021/08/20 07:45:46;;;;;;;9.40;3.75;;;19.60;99.90;;;;;;5098252;28;20028;-68
2021/08/20 07:48:12;;;;;;;4.72;3.25;;;19.60;99.90;;;;;;5099845;28;20027;-67
2021/08/20 07:50:40;;;;;;;5.88;3.67;;;19.60;99.90;;;;;;5099682;28;20391;-67
2021/08/20 07:53:07;;;;;;;3.05;2.38;;;19.60;99.90;;;;;;5099334;28;20465;-65
2021/08/20 07:55:33;;;;;;;4.35;2.20;;;19.60;99.90;;;;;;5094452;28;20059;-65
2021/08/20 07:57:59;;;;;;;4.93;2.75;;;19.70;99.90;;;;;;5099570;28;20025;-65
2021/08/20 08:00:27;;;;;;;2.75;2.42;;;19.90;99.90;;;;;;5095884;28;20028;-65
2021/08/20 08:02:54;;;;;;;2.67;1.90;;;19.90;99.90;;;;;;5103281;28;20047;-65
2021/08/20 08:05:21;;;;;;;3.22;2.08;;;20.00;99.90;;;;;;5098892;28;20035;-65
2021/08/20 08:07:48;;;;;;;2.42;2.22;;;20.20;99.90;;;;;;5099262;28;20016;-65
2021/08/20 08:10:14;;;;;;;3.85;2.30;;;20.30;99.90;;;;;;5098743;28;20024;-66
2021/08/20 08:12:40;;;;;;;2.47;2.25;;;20.40;99.90;;;;;;5099014;28;20028;-65
2021/08/20 08:15:08;;;;;;;4.07;2.25;;;20.50;99.90;;;;;;5109706;28;20404;-66
2021/08/20 08:17:35;;;;;;;6.05;3.03;;;20.50;99.90;;;;;;5098900;28;20031;-66
2021/08/20 08:20:01;;;;;;;6.78;1.77;;;20.50;99.90;;;;;;5098939;28;20055;-65
2021/08/20 08:22:27;;;;;;;4.47;1.88;;;20.50;99.90;;;;;;5098742;28;20547;-66
2021/08/20 08:24:53;;;;;;;4.32;1.60;;;20.50;99.90;;;;;;5098427;28;20078;-65
2021/08/20 08:27:19;;;;;;;2.60;1.60;;;20.60;99.90;;;;;;5098795;28;20031;-65
2021/08/20 08:29:44;;;;;;;1.63;1.52;;;20.60;99.90;;;;;;5098597;28;20071;-65
2021/08/20 08:32:10;;;;;;;2.75;1.60;;;20.70;99.90;;;;;;5098120;28;20019;-65
2021/08/20 08:34:38;;;;;;;3.45;1.50;;;20.70;99.90;;;;;;5098555;28;20035;-65
2021/08/20 08:37:04;;;;;;;4.00;2.38;;;20.80;99.90;;;;;;5097500;28;20111;-65
2021/08/20 08:39:30;;;;;;;2.88;1.90;;;20.90;99.90;;;;;;5097781;28;20588;-65
2021/08/20 08:41:56;;;;;;;2.15;1.30;;;20.90;99.90;;;;;;5097403;28;20047;-65
2021/08/20 08:44:21;;;;;;;4.07;1.92;;;20.90;99.90;;;;;;5098286;28;20179;-65
2021/08/20 08:46:49;;;;;;;2.78;1.27;;;21.00;99.90;;;;;;5098439;28;20035;-65
2021/08/20 08:49:19;;;;;;;1.98;1.40;;;21.10;99.90;;;;;;5098467;28;20032;-65
2021/08/20 08:51:45;;;;;;;2.70;1.63;;;21.10;99.90;;;;;;5098571;28;20020;-65
2021/08/20 08:54:15;;;;;;;1.95;1.38;;;21.30;99.90;;;;;;5098310;28;20047;-65
2021/08/20 08:56:43;;;;;;;3.53;1.90;;;21.30;99.90;;;;;;5098447;28;20023;-65
2021/08/20 08:59:09;;;;;;;2.38;1.45;;;21.30;99.90;;;;;;5098135;28;20028;-66
2021/08/20 09:01:38;;;;;;;2.38;1.30;;;21.20;99.90;;;;;;5098183;28;20387;-65
2021/08/20 09:04:13;;;;;;;4.40;1.50;;;21.40;99.90;;;;;;5098272;28;20024;-65
2021/08/20 09:06:57;;;;;;;2.80;2.15;;;21.40;99.90;;;;;;5098300;28;20139;-65
2021/08/20 09:09:24;;;;;;;4.28;1.45;;;21.60;99.90;;;;;;5097906;28;20031;-65
2021/08/20 09:11:54;;;;;;;3.53;1.65;;;21.70;99.90;;;;;;5097778;28;20008;-65
2021/08/20 09:14:27;;;;;;;2.55;1.17;;;21.70;99.90;;;;;;5097785;28;20024;-65
2021/08/20 09:16:54;;;;;;;4.32;1.20;;;21.80;99.90;;;;;;5097216;28;20022;-68
2021/08/20 09:19:22;;;;;;;1.95;1.20;;;21.80;99.90;;;;;;5097863;28;20109;-68
2021/08/20 09:21:54;;;;;;;2.55;1.90;;;22.00;99.90;;;;;;5097689;28;20027;-67
2021/08/20 09:24:42;;;;;;;3.38;1.52;;;22.20;99.90;;;;;;5097581;28;20027;-67
2021/08/20 09:27:14;;;;;;;1.75;1.00;;;22.20;99.90;;;;;;5097859;28;20023;-68
2021/08/20 09:30:07;;;;;;;2.53;1.23;;;22.00;99.90;;;;;;5097587;28;20079;-67
2021/08/20 09:32:54;;;;;;;2.95;1.45;;;22.10;99.90;;;;;;5097318;28;20395;-67
2021/08/20 09:35:20;;;;;;;1.63;1.20;;;22.20;99.90;;;;;;5097758;28;20024;-67
2021/08/20 09:37:46;;;;;;;2.45;1.23;;;22.60;99.90;;;;;;5096192;28;20024;-68
2021/08/20 09:40:16;;;;;;;3.75;1.40;;;22.70;99.90;;;;;;5097682;28;20035;-67
2021/08/20 09:42:42;;;;;;;2.03;1.42;;;22.80;99.90;;;;;;5097661;28;20024;-68
2021/08/20 09:45:16;;;;;;;2.45;1.10;;;23.20;99.90;;;;;;5097095;28;20122;-67
2021/08/20 09:47:44;;;;;;;4.38;1.90;;;23.20;99.90;;;;;;5097793;28;20077;-67
2021/08/20 09:50:10;;;;;;;3.78;1.27;;;23.30;99.90;;;;;;5096004;28;20028;-67
2021/08/20 09:52:36;;;;;;;3.15;1.02;;;23.40;99.90;;;;;;5097438;28;20049;-67
2021/08/20 09:55:02;;;;;;;1.83;0.90;;;23.20;99.90;;;;;;5097181;28;20499;-67
2021/08/20 09:57:28;;;;;;;1.42;1.15;;;23.20;99.90;;;;;;5097236;28;20020;-67
2021/08/20 09:59:55;;;;;;;3.25;1.23;;;23.20;99.90;;;;;;5095540;28;20036;-68
2021/08/20 10:02:26;;;;;;;2.15;0.77;;;23.20;99.90;;;;;;5097275;28;20024;-68
2021/08/20 10:04:57;;;;;;;3.25;1.30;;;23.10;99.90;;;;;;5095850;28;20032;-67
2021/08/20 10:07:26;;;;;;;1.95;1.05;;;23.10;99.90;;;;;;5097213;28;20080;-67
2021/08/20 10:09:55;;;;;;;1.27;1.00;;;23.10;99.90;;;;;;5096852;28;20028;-67
2021/08/20 10:12:25;;;;;;;1.00;0.90;;;23.30;99.90;;;;;;5097053;28;20396;-68
2021/08/20 10:14:53;;;;;;;2.13;1.20;;;23.50;99.90;;;;;;5096734;28;20361;-67
2021/08/20 10:17:20;;;;;;;2.65;1.23;;;23.70;99.90;;;;;;5097018;28;20411;-67
2021/08/20 10:19:51;;;;;;;0.80;0.75;;;23.90;99.90;;;;;;5095514;28;20468;-68
2021/08/20 10:22:18;;;;;;;1.70;1.00;;;24.10;99.90;;;;;;5097054;28;20100;-68
2021/08/20 10:24:44;;;;;;;4.65;1.70;;;24.20;99.90;;;;;;5096894;28;20020;-67
2021/08/20 10:27:11;;;;;;;3.30;1.17;;;24.50;99.90;;;;;;5096924;28;20472;-68
2021/08/20 10:29:47;;;;;;;2.45;1.20;;;24.50;99.90;;;;;;5096473;28;20020;-68
2021/08/20 10:32:15;;;;;;;3.75;1.63;;;24.60;99.90;;;;;;5096823;28;20024;-67
2021/08/20 10:34:42;;;;;;;3.20;1.35;;;24.60;99.90;;;;;;5096836;28;20016;-68
2021/08/20 10:37:10;;;;;;;1.50;0.90;;;24.70;99.90;;;;;;5095409;28;20024;-68
2021/08/20 10:39:38;;;;;;;2.17;1.20;;;24.60;99.90;;;;;;5095101;28;20031;-68
2021/08/20 10:42:34;;;;;;;1.80;1.00;;;24.80;99.90;;;;;;5095307;28;20143;-68
2021/08/20 10:45:18;;;;;;;0.77;0.60;;;25.00;99.90;;;;;;5090716;28;20396;-68
2021/08/20 10:47:45;;;;;;;1.63;0.80;;;25.30;99.90;;;;;;5096678;28;20036;-67
2021/08/20 10:50:20;;;;;;;1.33;0.60;;;25.50;99.90;;;;;;5096677;28;20028;-67
2021/08/20 10:52:52;;;;;;;2.03;0.60;;;25.60;99.90;;;;;;5096754;28;20044;-68
2021/08/20 10:55:28;;;;;;;1.25;0.60;;;25.50;99.90;;;;;;5096268;28;20274;-67
2021/08/20 10:57:57;;;;;;;0.65;0.60;;;25.30;99.90;;;;;;5096567;28;20025;-68
2021/08/20 11:00:24;;;;;;;0.93;0.43;;;25.30;99.90;;;;;;5095149;28;20032;-68
2021/08/20 11:02:52;;;;;;;1.13;0.73;;;25.10;99.90;;;;;;5096484;28;20020;-67
2021/08/20 11:05:19;;;;;;;1.83;0.73;;;24.60;99.90;;;;;;5096546;28;20035;-68
2021/08/20 11:07:46;;;;;;;1.02;0.80;;;24.40;99.90;;;;;;5096850;28;20035;-68
2021/08/20 11:10:12;;;;;;;2.40;0.75;;;24.50;99.90;;;;;;5096364;28;20107;-68
2021/08/20 11:12:47;;;;;;;0.57;0.50;;;26.00;99.90;;;;;;5096448;28;20048;-68
2021/08/20 11:15:25;;;;;;;0.77;0.65;;;26.30;99.90;;;;;;5096238;28;20103;-68
2021/08/20 11:17:59;;;;;;;0.55;0.50;;;26.50;99.90;;;;;;5096436;28;20095;-68
2021/08/20 11:20:38;;;;;;;0.95;0.65;;;26.40;99.90;;;;;;5096439;28;20028;-68
2021/08/20 11:23:12;;;;;;;0.60;0.40;;;26.10;99.90;;;;;;5096366;28;20030;-68
2021/08/20 11:25:42;;;;;;;3.05;0.70;;;25.80;99.90;;;;;;5096499;28;20036;-68
2021/08/20 11:28:28;;;;;;;1.70;0.65;;;25.50;99.90;;;;;;5095851;28;20400;-68
2021/08/20 11:31:10;;;;;;;0.60;0.60;;;25.20;99.90;;;;;;5096248;28;20032;-68
2021/08/20 11:33:40;;;;;;;2.03;0.68;;;25.10;99.90;;;;;;5096167;28;20107;-68
2021/08/20 11:36:08;;;;;;;1.33;0.70;;;25.70;99.90;;;;;;5096101;28;20081;-68
2021/08/20 11:38:43;;;;;;;1.92;0.70;;;27.30;99.90;;;;;;5096287;28;20020;-68
2021/08/20 11:41:19;;;;;;;7.10;0.50;;;28.40;99.90;;;;;;5099745;28;20020;-68
2021/08/20 11:43:54;;;;;;;0.65;0.40;;;29.30;99.90;;;;;;5099409;28;20266;-68
2021/08/20 11:46:22;;;;;;;1.10;0.50;;;29.50;99.90;;;;;;5098521;28;20162;-68
2021/08/20 11:48:50;;;;;;;0.60;0.30;;;29.20;99.90;;;;;;5098309;28;20040;-68
2021/08/20 11:51:39;;;;;;;1.20;0.40;;;28.60;99.30;;;;;;5099558;28;20020;-68
2021/08/20 11:54:08;;;;;;;0.57;0.55;;;28.20;98.50;;;;;;5099244;28;20576;-68
2021/08/20 11:56:35;;;;;;;0.85;0.43;;;27.50;99.30;;;;;;5099408;28;20016;-68
2021/08/20 11:59:08;;;;;;;0.60;0.40;;;27.50;99.90;;;;;;5099268;28;20024;-68
2021/08/20 12:01:37;;;;;;;1.23;0.40;;;27.60;99.90;;;;;;5099279;28;20066;-68
2021/08/20 12:04:04;;;;;;;0.70;0.50;;;27.90;99.90;;;;;;5099627;28;20028;-68
2021/08/20 12:06:29;;;;;;;0.75;0.60;;;28.10;99.70;;;;;;5099345;28;20091;-68
2021/08/20 12:09:06;;;;;;;0.60;0.40;;;28.20;98.60;;;;;;5099292;28;20052;-68
2021/08/20 12:11:32;;;;;;;0.93;0.88;;;28.00;98.60;;;;;;5099242;28;20028;-68
2021/08/20 12:13:58;;;;;;;1.50;0.30;;;27.80;98.80;;;;;;5099009;28;20023;-68
2021/08/20 12:16:44;;;;;;;0.95;0.40;;;27.70;98.80;;;;;;5099206;28;20069;-68
2021/08/20 12:19:30;;;;;;;0.68;0.50;;;27.60;99.00;;;;;;5099379;28;20027;-68
2021/08/20 12:22:03;;;;;;;;;;;27.60;99.10;;;;;;5099440;28;20027;-68
2021/08/20 12:24:38;;;;;;;0.32;0.32;;;27.70;99.30;;;;;;5098814;28;19957;-68
2021/08/20 12:27:10;;;;;;;0.95;0.35;;;27.30;98.20;;;;;;5099188;28;20027;-68
2021/08/20 12:29:37;;;;;;;0.57;0.50;;;27.20;98.50;;;;;;5098489;28;20038;-68
2021/08/20 12:32:03;;;;;;;1.30;0.52;;;27.20;99.20;;;;;;5098757;28;20078;-68
2021/08/20 12:34:35;;;;;;;0.40;0.40;;;27.20;99.30;;;;;;5098836;28;20020;-68
2021/08/20 12:37:04;;;;;;;1.00;0.50;;;27.20;99.30;;;;;;5098919;28;20376;-68
2021/08/20 12:39:35;;;;;;;0.57;0.40;;;27.40;99.60;;;;;;5098486;28;20035;-68
2021/08/20 12:42:24;;;;;;;1.45;0.50;;;27.50;98.90;;;;;;5098714;28;20030;-68
2021/08/20 12:45:17;;;;;;;0.40;0.40;;;27.60;99.00;;;;;;5098506;28;20092;-68
2021/08/20 12:47:45;;;;;;;2.00;0.60;;;27.80;99.10;;;;;;5097417;28;20059;-68
2021/08/20 12:50:19;;;;;;;0.52;0.38;;;27.90;98.50;;;;;;5098034;28;20028;-68
2021/08/20 12:52:45;;;;;;;0.67;0.50;;;27.20;97.50;;;;;;5098209;28;20032;-68